createdAt,value
2017-06-13T00:00:27.491Z,70.09
2017-06-13T00:01:28.773Z,70.28
2017-06-13T00:02:30.057Z,70.56
2017-06-13T00:03:31.342Z,70.47
2017-06-13T00:04:32.588Z,70.56
2017-06-13T00:05:33.874Z,70.76
2017-06-13T00:06:35.116Z,70.47
2017-06-13T00:07:36.437Z,70.37
2017-06-13T00:08:37.739Z,70.37
2017-06-13T00:09:38.980Z,70.56
2017-06-13T00:10:40.251Z,70.56
2017-06-13T00:11:41.588Z,70.18
2017-06-13T00:12:42.827Z,70.28
2017-06-13T00:13:44.136Z,70.37
2017-06-13T00:14:45.367Z,70.37
2017-06-13T00:15:46.613Z,70.37
2017-06-13T00:16:47.915Z,70.28
2017-06-13T00:17:49.152Z,70.37
2017-06-13T00:18:50.521Z,70.18
2017-06-13T00:19:51.773Z,70.28
2017-06-13T00:20:53.035Z,70.18
2017-06-13T00:21:54.377Z,70.28
2017-06-13T00:22:55.639Z,70.47
2017-06-13T00:23:56.872Z,70.37
2017-06-13T00:24:58.147Z,70.47
2017-06-13T00:25:59.386Z,70.47
2017-06-13T00:27:00.653Z,70.66
2017-06-13T00:28:01.923Z,70.37
2017-06-13T00:29:03.295Z,70.37
2017-06-13T00:30:04.551Z,70.76
2017-06-13T00:31:05.801Z,70.85
2017-06-13T00:32:07.059Z,70.56
2017-06-13T00:33:08.312Z,70.56
2017-06-13T00:34:09.689Z,70.56
2017-06-13T00:35:10.982Z,70.66
2017-06-13T00:36:12.225Z,70.37
2017-06-13T00:37:13.470Z,70.28
2017-06-13T00:38:14.785Z,70.76
2017-06-13T00:39:16.074Z,71.14
2017-06-13T00:40:17.337Z,71.04
2017-06-13T00:41:18.570Z,71.04
2017-06-13T00:42:19.837Z,71.33
2017-06-13T00:43:21.097Z,71.14
2017-06-13T00:44:22.335Z,70.85
2017-06-13T00:45:23.570Z,70.66
2017-06-13T00:46:24.900Z,71.52
2017-06-13T00:47:26.146Z,71.33
2017-06-13T00:48:27.388Z,71.33
2017-06-13T00:49:28.665Z,71.71
2017-06-13T00:50:29.885Z,71.62
2017-06-13T00:51:31.152Z,70.95
2017-06-13T00:52:32.419Z,71.04
2017-06-13T00:53:33.682Z,71.33
2017-06-13T00:54:34.923Z,71.42
2017-06-13T00:55:36.158Z,71.33
2017-06-13T00:56:37.398Z,71.71
2017-06-13T00:57:38.698Z,71.71
2017-06-13T00:58:39.969Z,71.62
2017-06-13T00:59:41.228Z,71.62
2017-06-13T01:00:42.454Z,71.71
2017-06-13T01:01:43.702Z,71.81
2017-06-13T01:02:44.959Z,71.81
2017-06-13T01:03:46.206Z,71.42
2017-06-13T01:04:47.520Z,71.91
2017-06-13T01:05:48.764Z,71.62
2017-06-13T01:06:50.015Z,71.71
2017-06-13T01:07:51.266Z,72.29
2017-06-13T01:08:52.518Z,72.19
2017-06-13T01:09:53.755Z,71.71
2017-06-13T01:10:55.086Z,72.58
2017-06-13T01:11:56.355Z,72.48
2017-06-13T01:12:57.689Z,72.09
2017-06-13T01:13:58.933Z,71.91
2017-06-13T01:15:00.196Z,72.38
2017-06-13T01:16:01.469Z,72.38
2017-06-13T01:17:02.698Z,72.67
2017-06-13T01:18:03.969Z,72.29
2017-06-13T01:19:05.295Z,72.29
2017-06-13T01:20:06.469Z,72.29
2017-06-13T01:21:07.709Z,72.77
2017-06-13T01:22:08.955Z,72.48
2017-06-13T01:23:10.248Z,72.77
2017-06-13T01:24:11.510Z,72.58
2017-06-13T01:25:12.751Z,72.19
2017-06-13T01:26:14.013Z,72.19
2017-06-13T01:27:15.256Z,72.67
2017-06-13T01:28:16.574Z,72.67
2017-06-13T01:29:17.798Z,72.09
2017-06-13T01:30:19.128Z,72.77
2017-06-13T01:31:20.353Z,72.67
2017-06-13T01:32:21.636Z,72.67
2017-06-13T01:33:22.905Z,72.67
2017-06-13T01:34:24.154Z,72.86
2017-06-13T01:35:25.421Z,72.96
2017-06-13T01:36:26.742Z,73.24
2017-06-13T01:37:28.107Z,72.38
2017-06-13T01:38:29.341Z,73.05
2017-06-13T01:39:30.591Z,72.96
2017-06-13T01:40:31.830Z,72.58
2017-06-13T01:41:33.079Z,72.96
2017-06-13T01:42:34.387Z,72.67
2017-06-13T01:43:35.652Z,73.05
2017-06-13T01:44:36.898Z,72.86
2017-06-13T01:45:38.146Z,73.05
2017-06-13T01:46:39.394Z,73.05
2017-06-13T01:47:40.635Z,72.96
2017-06-13T01:48:41.948Z,72.96
2017-06-13T01:49:43.144Z,73.44
2017-06-13T01:50:44.512Z,73.15
2017-06-13T01:51:45.721Z,73.15
2017-06-13T01:52:46.980Z,73.34
2017-06-13T01:53:48.232Z,73.44
2017-06-13T01:54:49.476Z,73.24
2017-06-13T01:55:50.747Z,73.24
2017-06-13T01:56:51.968Z,73.15
2017-06-13T01:57:53.221Z,73.44
2017-06-13T01:58:54.552Z,73.24
2017-06-13T01:59:55.801Z,73.34
2017-06-13T02:00:57.042Z,73.24
2017-06-13T02:01:58.353Z,73.24
2017-06-13T02:02:59.602Z,73.44
2017-06-13T02:04:00.843Z,73.34
2017-06-13T02:05:02.079Z,73.72
2017-06-13T02:06:03.327Z,73.82
2017-06-13T02:07:04.570Z,73.54
2017-06-13T02:08:05.861Z,73.82
2017-06-13T02:09:07.125Z,73.82
2017-06-13T02:10:08.353Z,74.01
2017-06-13T02:11:09.651Z,73.91
2017-06-13T02:12:10.903Z,73.91
2017-06-13T02:13:12.162Z,73.82
2017-06-13T02:14:13.402Z,73.72
2017-06-13T02:15:14.725Z,73.54
2017-06-13T02:16:15.972Z,73.63
2017-06-13T02:17:17.211Z,73.82
2017-06-13T02:18:18.490Z,73.82
2017-06-13T02:19:19.739Z,73.54
2017-06-13T02:20:20.968Z,73.63
2017-06-13T02:21:22.358Z,73.24
2017-06-13T02:22:23.595Z,73.72
2017-06-13T02:23:24.854Z,73.91
2017-06-13T02:24:26.109Z,73.82
2017-06-13T02:25:27.428Z,74.01
2017-06-13T02:26:28.628Z,73.82
2017-06-13T02:27:29.949Z,73.91
2017-06-13T02:28:31.174Z,73.82
2017-06-13T02:29:32.409Z,74.01
2017-06-13T02:30:33.659Z,73.91
2017-06-13T02:31:34.949Z,74.3
2017-06-13T02:32:36.244Z,74.11
2017-06-13T02:33:37.655Z,74.4
2017-06-13T02:34:38.789Z,74.01
2017-06-13T02:35:40.051Z,74.58
2017-06-13T02:36:41.292Z,74.36
2017-06-13T02:37:42.521Z,74.11
2017-06-13T02:38:43.770Z,74.87
2017-06-13T02:39:45.025Z,74.58
2017-06-13T02:40:46.280Z,74.87
2017-06-13T02:41:47.490Z,74.4
2017-06-13T02:42:48.756Z,75.16
2017-06-13T02:43:49.995Z,75.16
2017-06-13T02:44:51.223Z,74.93
2017-06-13T02:45:52.504Z,74.97
2017-06-13T02:46:53.761Z,74.49
2017-06-13T02:47:55.042Z,74.77
2017-06-13T02:48:56.272Z,74.4
2017-06-13T02:49:57.514Z,74.87
2017-06-13T02:50:58.778Z,74.87
2017-06-13T02:52:00.093Z,75.26
2017-06-13T02:53:01.336Z,74.65
2017-06-13T02:54:02.587Z,75.12
2017-06-13T02:55:03.827Z,75.26
2017-06-13T02:56:05.076Z,74.93
2017-06-13T02:57:06.347Z,75.26
2017-06-13T02:58:07.584Z,74.93
2017-06-13T02:59:08.881Z,74.93
2017-06-13T03:00:10.245Z,75.02
2017-06-13T03:01:11.592Z,74.84
2017-06-13T03:02:12.838Z,75.31
2017-06-13T03:03:14.079Z,75.02
2017-06-13T03:04:15.331Z,75.12
2017-06-13T03:05:16.582Z,75.12
2017-06-13T03:06:17.838Z,75.31
2017-06-13T03:07:19.096Z,75.12
2017-06-13T03:08:20.334Z,75.31
2017-06-13T03:09:21.577Z,75.31
2017-06-13T03:10:22.825Z,75.31
2017-06-13T03:11:24.140Z,75.6
2017-06-13T03:12:25.803Z,75.22
2017-06-13T03:13:26.931Z,75.51
2017-06-13T03:14:28.219Z,75.12
2017-06-13T03:15:29.450Z,75.89
2017-06-13T03:16:30.746Z,75.51
2017-06-13T03:17:32.035Z,75.79
2017-06-13T03:18:33.349Z,75.98
2017-06-13T03:19:34.569Z,75.89
2017-06-13T03:20:35.806Z,75.51
2017-06-13T03:21:37.046Z,75.93
2017-06-13T03:22:38.374Z,75.93
2017-06-13T03:23:39.617Z,75.79
2017-06-13T03:24:40.887Z,75.73
2017-06-13T03:25:42.108Z,75.83
2017-06-13T03:26:43.348Z,76.37
2017-06-13T03:27:44.608Z,76.37
2017-06-13T03:28:45.857Z,75.79
2017-06-13T03:29:47.097Z,76.65
2017-06-13T03:30:48.365Z,77.04
2017-06-13T03:31:49.647Z,76.56
2017-06-13T03:32:50.861Z,76.94
2017-06-13T03:33:52.240Z,76.56
2017-06-13T03:34:53.483Z,77.04
2017-06-13T03:35:54.748Z,76.56
2017-06-13T03:36:56.010Z,77.04
2017-06-13T03:37:57.278Z,77.04
2017-06-13T03:38:58.527Z,76.46
2017-06-13T03:39:59.770Z,76.84
2017-06-13T03:41:01.004Z,77.13
2017-06-13T03:42:02.364Z,76.94
2017-06-13T03:43:03.626Z,77.8
2017-06-13T03:44:04.876Z,77.04
2017-06-13T03:45:06.115Z,76.75
2017-06-13T03:46:07.355Z,76.75
2017-06-13T03:47:08.633Z,77.04
2017-06-13T03:48:09.877Z,77.13
2017-06-13T03:49:11.131Z,77.61
2017-06-13T03:50:12.408Z,77.26
2017-06-13T03:51:13.664Z,77.23
2017-06-13T03:52:14.892Z,77.65
2017-06-13T03:53:16.148Z,77.65
2017-06-13T03:54:17.417Z,77.55
2017-06-13T03:55:18.644Z,77.26
2017-06-13T03:56:19.904Z,77.17
2017-06-13T03:57:21.145Z,76.79
2017-06-13T03:58:22.404Z,76.69
2017-06-13T03:59:23.652Z,76.4
2017-06-13T04:00:24.934Z,76.89
2017-06-13T04:01:26.270Z,76.79
2017-06-13T04:02:27.625Z,77.08
2017-06-13T04:03:28.839Z,76.98
2017-06-13T04:04:30.075Z,76.79
2017-06-13T04:05:31.330Z,76.79
2017-06-13T04:06:32.593Z,76.69
2017-06-13T04:07:33.818Z,76.5
2017-06-13T04:08:35.067Z,76.69
2017-06-13T04:09:36.314Z,76.5
2017-06-13T04:10:37.595Z,76.4
2017-06-13T04:11:38.820Z,76.06
2017-06-13T04:12:40.133Z,75.77
2017-06-13T04:13:41.366Z,75.1
2017-06-13T04:14:42.670Z,75.2
2017-06-13T04:15:43.918Z,74.37
2017-06-13T04:16:45.158Z,74.43
2017-06-13T04:17:46.548Z,73.99
2017-06-13T04:18:47.797Z,73.8
2017-06-13T04:19:49.102Z,73.9
2017-06-13T04:20:50.351Z,73.51
2017-06-13T04:21:51.693Z,73.13
2017-06-13T04:22:52.930Z,73.13
2017-06-13T04:23:54.242Z,73.13
2017-06-13T04:24:55.442Z,73.13
2017-06-13T04:25:56.692Z,73.13
2017-06-13T04:26:57.957Z,73.03
2017-06-13T04:27:59.200Z,73.03
2017-06-13T04:29:00.445Z,73.13
2017-06-13T04:30:01.687Z,72.64
2017-06-13T04:31:02.933Z,72.64
2017-06-13T04:32:04.286Z,72.64
2017-06-13T04:33:05.525Z,73.03
2017-06-13T04:34:06.760Z,72.64
2017-06-13T04:35:08.004Z,72.84
2017-06-13T04:36:09.270Z,73.03
2017-06-13T04:37:10.559Z,73.22
2017-06-13T04:38:11.827Z,73.22
2017-06-13T04:39:13.083Z,73.22
2017-06-13T04:40:14.321Z,72.68
2017-06-13T04:41:15.566Z,72.64
2017-06-13T04:42:16.908Z,72.84
2017-06-13T04:43:18.281Z,73.22
2017-06-13T04:44:19.521Z,73.07
2017-06-13T04:45:20.786Z,73.9
2017-06-13T04:46:22.027Z,73.61
2017-06-13T04:47:23.260Z,73.99
2017-06-13T04:48:24.499Z,73.8
2017-06-13T04:49:25.794Z,73.51
2017-06-13T04:50:27.047Z,73.93
2017-06-13T04:51:28.287Z,73.7
2017-06-13T04:52:29.541Z,74.02
2017-06-13T04:53:30.775Z,73.51
2017-06-13T04:54:32.051Z,73.74
2017-06-13T04:55:33.274Z,73.45
2017-06-13T04:56:34.557Z,72.59
2017-06-13T04:57:35.806Z,72.3
2017-06-13T04:58:37.042Z,71.86
2017-06-13T04:59:38.270Z,71.57
2017-06-13T05:00:39.509Z,71.19
2017-06-13T05:01:40.760Z,70.51
2017-06-13T05:02:42.215Z,70.8
2017-06-13T05:03:43.391Z,70.26
2017-06-13T05:04:44.621Z,69.87
2017-06-13T05:05:45.871Z,69.4
2017-06-13T05:06:47.113Z,69.11
2017-06-13T05:07:48.371Z,69.3
2017-06-13T05:08:49.613Z,69.11
2017-06-13T05:09:50.902Z,68.85
2017-06-13T05:10:52.262Z,67.61
2017-06-13T05:11:53.509Z,66.49
2017-06-13T05:12:54.776Z,65.43
2017-06-13T05:13:56.021Z,65.08
2017-06-13T05:14:57.261Z,64.6
2017-06-13T05:15:58.533Z,64.12
2017-06-13T05:16:59.758Z,63.83
2017-06-13T05:18:01.003Z,63.64
2017-06-13T05:19:02.241Z,63.15
2017-06-13T05:20:03.483Z,63.83
2017-06-13T05:21:04.830Z,63.64
2017-06-13T05:22:06.219Z,63.83
2017-06-13T05:23:07.468Z,63.38
2017-06-13T05:24:08.703Z,63.48
2017-06-13T05:25:09.947Z,63.64
2017-06-13T05:26:11.187Z,63.54
2017-06-13T05:27:12.558Z,63.35
2017-06-13T05:28:13.824Z,63.48
2017-06-13T05:29:15.072Z,63.25
2017-06-13T05:30:16.301Z,63.35
2017-06-13T05:31:17.564Z,63.73
2017-06-13T05:32:18.854Z,63.92
2017-06-13T05:33:20.184Z,64.02
2017-06-13T05:34:21.425Z,64.6
2017-06-13T05:35:22.660Z,64.5
2017-06-13T05:36:23.973Z,64.02
2017-06-13T05:37:25.208Z,64.5
2017-06-13T05:38:26.580Z,63.76
2017-06-13T05:39:27.846Z,62.45
2017-06-13T05:40:29.083Z,60.46
2017-06-13T05:41:30.328Z,58.37
2017-06-13T05:42:31.583Z,57.62
2017-06-13T05:43:32.870Z,56.4
2017-06-13T05:44:34.121Z,55.01
2017-06-13T05:45:35.371Z,53.01
2017-06-13T05:46:36.655Z,51.23
2017-06-13T05:47:37.874Z,49.12
2017-06-13T05:48:39.109Z,47.33
2017-06-13T05:49:40.379Z,45.32
2017-06-13T05:50:41.620Z,44.27
2017-06-13T05:51:43.052Z,43.62
2017-06-13T05:52:44.325Z,42.38
2017-06-13T05:53:45.635Z,41.24
2017-06-13T05:54:46.850Z,39.88
2017-06-13T05:55:48.122Z,39.98
2017-06-13T05:56:49.333Z,39.22
2017-06-13T05:57:50.591Z,38.85
2017-06-13T05:58:51.851Z,38.83
2017-06-13T05:59:53.097Z,39.43
2017-06-13T06:00:54.411Z,39.22
2017-06-13T06:01:55.714Z,39.03
2017-06-13T06:02:56.994Z,39.03
2017-06-13T06:03:58.279Z,39.41
2017-06-13T06:04:59.552Z,38.34
2017-06-13T06:06:00.897Z,38.83
2017-06-13T06:07:02.144Z,38.64
2017-06-13T06:08:03.377Z,38.34
2017-06-13T06:09:04.767Z,38.62
2017-06-13T06:10:06.155Z,39.39
2017-06-13T06:11:07.306Z,39.47
2017-06-13T06:12:08.559Z,39.86
2017-06-13T06:13:09.858Z,39.69
2017-06-13T06:14:11.112Z,38.37
2017-06-13T06:15:12.372Z,37.51
2017-06-13T06:16:13.605Z,36.18
2017-06-13T06:17:14.880Z,35.52
2017-06-13T06:18:16.221Z,34.56
2017-06-13T06:19:17.470Z,33.14
2017-06-13T06:20:18.758Z,31.6
2017-06-13T06:21:20.008Z,30.93
2017-06-13T06:22:21.341Z,30.16
2017-06-13T06:23:22.658Z,30.44
2017-06-13T06:24:23.955Z,30.16
2017-06-13T06:25:25.176Z,30.35
2017-06-13T06:26:26.448Z,29.57
2017-06-13T06:27:27.685Z,29.1
2017-06-13T06:28:29.002Z,29.36
2017-06-13T06:29:30.333Z,29.36
2017-06-13T06:30:31.581Z,29.95
2017-06-13T06:31:32.831Z,29.66
2017-06-13T06:32:34.106Z,29.18
2017-06-13T06:33:35.344Z,28.91
2017-06-13T06:34:36.827Z,28.5
2017-06-13T06:35:38.056Z,28.68
2017-06-13T06:36:39.323Z,28.4
2017-06-13T06:37:40.561Z,28.61
2017-06-13T06:38:41.812Z,28.11
2017-06-13T06:39:43.063Z,27.72
2017-06-13T06:40:44.430Z,27.72
2017-06-13T06:41:45.654Z,27.25
2017-06-13T06:42:46.919Z,27.25
2017-06-13T06:43:48.157Z,26.59
2017-06-13T06:44:49.399Z,26
2017-06-13T06:45:50.671Z,25.32
2017-06-13T06:46:51.916Z,25.52
2017-06-13T06:47:53.175Z,25.42
2017-06-13T06:48:54.452Z,25.42
2017-06-13T06:49:55.702Z,25.43
2017-06-13T06:50:57.012Z,25.05
2017-06-13T06:51:58.232Z,24.27
2017-06-13T06:52:59.488Z,23.98
2017-06-13T06:54:00.764Z,24.26
2017-06-13T06:55:02.106Z,24.16
2017-06-13T06:56:03.362Z,25.13
2017-06-13T06:57:04.684Z,25.32
2017-06-13T06:58:05.943Z,25.71
2017-06-13T06:59:07.204Z,25.88
2017-06-13T07:00:08.513Z,27.11
2017-06-13T07:01:09.796Z,28.16
2017-06-13T07:02:11.026Z,28.54
2017-06-13T07:03:12.299Z,29.68
2017-06-13T07:04:13.549Z,30.54
2017-06-13T07:05:14.872Z,31.29
2017-06-13T07:06:16.121Z,32.44
2017-06-13T07:07:17.366Z,33.02
2017-06-13T07:08:18.620Z,33.2
2017-06-13T07:09:19.879Z,33.29
2017-06-13T07:10:21.216Z,33.49
2017-06-13T07:11:22.486Z,32.75
2017-06-13T07:12:23.833Z,31.5
2017-06-13T07:13:25.085Z,30.93
2017-06-13T07:14:26.333Z,29.89
2017-06-13T07:15:27.589Z,29.22
2017-06-13T07:16:28.851Z,28.07
2017-06-13T07:17:30.170Z,27.22
2017-06-13T07:18:31.418Z,26.45
2017-06-13T07:19:32.679Z,26.54
2017-06-13T07:20:33.947Z,26.72
2017-06-13T07:21:35.213Z,27.87
2017-06-13T07:22:36.464Z,28.74
2017-06-13T07:23:37.744Z,28.83
2017-06-13T07:24:39.000Z,29.13
2017-06-13T07:25:40.251Z,29.32
2017-06-13T07:26:41.526Z,29.52
2017-06-13T07:27:42.762Z,29.97
2017-06-13T07:28:44.022Z,30.15
2017-06-13T07:29:45.277Z,30.15
2017-06-13T07:30:46.605Z,29.96
2017-06-13T07:31:47.841Z,29.08
2017-06-13T07:32:49.104Z,29.5
2017-06-13T07:33:50.353Z,28.26
2017-06-13T07:34:51.602Z,27.19
2017-06-13T07:35:52.922Z,27.01
2017-06-13T07:36:54.284Z,26.41
2017-06-13T07:37:55.537Z,27.28
2017-06-13T07:38:56.817Z,28.32
2017-06-13T07:39:58.045Z,28.79
2017-06-13T07:40:59.338Z,29.28
2017-06-13T07:42:00.621Z,30.24
2017-06-13T07:43:01.888Z,31.19
2017-06-13T07:44:03.145Z,31.84
2017-06-13T07:45:04.407Z,32.99
2017-06-13T07:46:05.678Z,33.75
2017-06-13T07:47:06.960Z,34.22
2017-06-13T07:48:08.288Z,34.39
2017-06-13T07:49:09.512Z,34.97
2017-06-13T07:50:10.808Z,34.96
2017-06-13T07:51:12.060Z,35.35
2017-06-13T07:52:13.335Z,35.52
2017-06-13T07:53:14.652Z,36.78
2017-06-13T07:54:15.926Z,36.58
2017-06-13T07:55:17.179Z,36.78
2017-06-13T07:56:18.442Z,36.62
2017-06-13T07:57:19.689Z,35.9
2017-06-13T07:58:20.936Z,32.73
2017-06-13T07:59:22.216Z,31.29
2017-06-13T08:00:23.486Z,31.38
2017-06-13T08:01:24.757Z,31.19
2017-06-13T08:02:26.025Z,31.95
2017-06-13T08:03:27.274Z,32.62
2017-06-13T08:04:28.523Z,32.78
2017-06-13T08:05:29.786Z,34.01
2017-06-13T08:06:31.040Z,34.67
2017-06-13T08:07:32.447Z,35.72
2017-06-13T08:08:33.707Z,36.66
2017-06-13T08:09:34.961Z,37.63
2017-06-13T08:10:36.210Z,38.48
2017-06-13T08:11:37.483Z,38.56
2017-06-13T08:12:38.726Z,39.04
2017-06-13T08:13:40.060Z,39.82
2017-06-13T08:14:41.246Z,40.96
2017-06-13T08:15:42.501Z,40.94
2017-06-13T08:16:43.757Z,40.65
2017-06-13T08:17:45.001Z,41.69
2017-06-13T08:18:46.416Z,41.61
2017-06-13T08:19:47.861Z,41.13
2017-06-13T08:20:49.008Z,41.13
2017-06-13T08:21:50.295Z,41.03
2017-06-13T08:22:51.533Z,40.94
2017-06-13T08:23:52.770Z,42.1
2017-06-13T08:24:54.087Z,40.94
2017-06-13T08:25:55.303Z,40.86
2017-06-13T08:26:56.636Z,39.62
2017-06-13T08:27:57.901Z,38.87
2017-06-13T08:28:59.159Z,37.75
2017-06-13T08:30:00.435Z,35.85
2017-06-13T08:31:01.682Z,34.51
2017-06-13T08:32:03.038Z,33.86
2017-06-13T08:33:04.293Z,32.64
2017-06-13T08:34:05.549Z,31.21
2017-06-13T08:35:06.907Z,29.78
2017-06-13T08:36:08.229Z,28.43
2017-06-13T08:37:09.471Z,27.86
2017-06-13T08:38:10.730Z,27.16
2017-06-13T08:39:11.999Z,27.44
2017-06-13T08:40:13.250Z,28.59
2017-06-13T08:41:14.509Z,28.88
2017-06-13T08:42:15.768Z,29.74
2017-06-13T08:43:17.037Z,30.01
2017-06-13T08:44:18.402Z,31.65
2017-06-13T08:45:19.676Z,31.82
2017-06-13T08:46:20.920Z,32.68
2017-06-13T08:47:22.189Z,33.15
2017-06-13T08:48:23.496Z,34.39
2017-06-13T08:49:24.765Z,35.05
2017-06-13T08:50:25.994Z,36
2017-06-13T08:51:27.241Z,36.58
2017-06-13T08:52:28.500Z,36.96
2017-06-13T08:53:29.759Z,36.84
2017-06-13T08:54:31.130Z,37.4
2017-06-13T08:55:32.387Z,38.18
2017-06-13T08:56:33.745Z,38.64
2017-06-13T08:57:35.005Z,39.03
2017-06-13T08:58:36.287Z,39.22
2017-06-13T08:59:37.521Z,39.22
2017-06-13T09:00:38.886Z,39.62
2017-06-13T09:01:40.174Z,39.04
2017-06-13T09:02:41.421Z,39.24
2017-06-13T09:03:42.691Z,38.76
2017-06-13T09:04:43.953Z,38.66
2017-06-13T09:05:45.225Z,38.76
2017-06-13T09:06:46.475Z,39.34
2017-06-13T09:07:47.732Z,39.04
2017-06-13T09:08:48.975Z,39.72
2017-06-13T09:09:50.221Z,38.87
2017-06-13T09:10:51.496Z,38.68
2017-06-13T09:11:52.815Z,38.7
2017-06-13T09:12:54.225Z,37.71
2017-06-13T09:13:55.515Z,37.81
2017-06-13T09:14:56.777Z,38.12
2017-06-13T09:15:58.070Z,38.12
2017-06-13T09:16:59.292Z,37.46
2017-06-13T09:18:00.660Z,37.07
2017-06-13T09:19:01.981Z,36.68
2017-06-13T09:20:03.205Z,37.07
2017-06-13T09:21:04.457Z,36.68
2017-06-13T09:22:05.706Z,36.58
2017-06-13T09:23:06.955Z,37.46
2017-06-13T09:24:08.260Z,38.12
2017-06-13T09:25:09.483Z,38.02
2017-06-13T09:26:10.822Z,38.02
2017-06-13T09:27:12.085Z,37.54
2017-06-13T09:28:13.308Z,36.4
2017-06-13T09:29:14.592Z,35.91
2017-06-13T09:30:15.836Z,35.54
2017-06-13T09:31:17.161Z,35.54
2017-06-13T09:32:18.414Z,35.35
2017-06-13T09:33:19.654Z,34.69
2017-06-13T09:34:20.943Z,35.07
2017-06-13T09:35:22.201Z,34.97
2017-06-13T09:36:23.432Z,35.17
2017-06-13T09:37:24.759Z,35.38
2017-06-13T09:38:25.984Z,34.78
2017-06-13T09:39:27.239Z,34.69
2017-06-13T09:40:28.490Z,34.59
2017-06-13T09:41:29.746Z,34.97
2017-06-13T09:42:31.026Z,34.49
2017-06-13T09:43:32.308Z,34.39
2017-06-13T09:44:33.551Z,34.69
2017-06-13T09:45:34.803Z,34.49
2017-06-13T09:46:36.061Z,34.88
2017-06-13T09:47:37.359Z,34.61
2017-06-13T09:48:38.579Z,33.34
2017-06-13T09:49:39.833Z,32.96
2017-06-13T09:50:41.177Z,32.59
2017-06-13T09:51:42.452Z,31.71
2017-06-13T09:52:43.711Z,31.45
2017-06-13T09:53:44.958Z,31.08
2017-06-13T09:54:46.201Z,30.01
2017-06-13T09:55:47.462Z,30.01
2017-06-13T09:56:48.740Z,30.3
2017-06-13T09:57:49.972Z,30.21
2017-06-13T09:58:51.207Z,30.3
2017-06-13T09:59:52.462Z,29.93
2017-06-13T10:00:53.727Z,29.36
2017-06-13T10:01:54.965Z,28.5
2017-06-13T10:02:56.289Z,27.83
2017-06-13T10:03:57.536Z,27.36
2017-06-13T10:04:58.807Z,26.87
2017-06-13T10:06:00.065Z,26.78
2017-06-13T10:07:01.321Z,27.25
2017-06-13T10:08:02.602Z,27.36
2017-06-13T10:09:03.857Z,27.36
2017-06-13T10:10:05.114Z,28.03
2017-06-13T10:11:06.409Z,28.59
2017-06-13T10:12:07.619Z,29.46
2017-06-13T10:13:08.893Z,30.32
2017-06-13T10:14:10.159Z,31.27
2017-06-13T10:15:11.515Z,31.94
2017-06-13T10:16:12.854Z,32.12
2017-06-13T10:17:14.102Z,32.59
2017-06-13T10:18:15.352Z,33.17
2017-06-13T10:19:16.614Z,33.34
2017-06-13T10:20:17.903Z,33.73
2017-06-13T10:21:19.188Z,32.96
2017-06-13T10:22:20.461Z,33.36
2017-06-13T10:23:21.719Z,33.84
2017-06-13T10:24:22.992Z,33.46
2017-06-13T10:25:24.246Z,33.18
2017-06-13T10:26:25.493Z,32.21
2017-06-13T10:27:26.782Z,32.32
2017-06-13T10:28:28.035Z,31.65
2017-06-13T10:29:29.284Z,32.13
2017-06-13T10:30:30.569Z,32.42
2017-06-13T10:31:31.821Z,31.94
2017-06-13T10:32:33.085Z,31.53
2017-06-13T10:33:34.366Z,31.34
2017-06-13T10:34:35.630Z,32.39
2017-06-13T10:35:36.886Z,32.67
2017-06-13T10:36:38.157Z,33.62
2017-06-13T10:37:39.448Z,34.28
2017-06-13T10:38:40.649Z,34.65
2017-06-13T10:39:41.892Z,35.72
2017-06-13T10:40:43.141Z,36.38
2017-06-13T10:41:44.410Z,36.84
2017-06-13T10:42:45.658Z,37.32
2017-06-13T10:43:46.932Z,38.18
2017-06-13T10:44:48.191Z,38.18
2017-06-13T10:45:49.504Z,38.74
2017-06-13T10:46:50.762Z,39.32
2017-06-13T10:47:52.036Z,39.7
2017-06-13T10:48:53.295Z,39.78
2017-06-13T10:49:54.552Z,39.22
2017-06-13T10:50:55.850Z,39.32
2017-06-13T10:51:57.135Z,39.61
2017-06-13T10:52:58.478Z,39.7
2017-06-13T10:53:59.721Z,39.04
2017-06-13T10:55:00.977Z,38.95
2017-06-13T10:56:02.229Z,38.56
2017-06-13T10:57:03.476Z,37.9
2017-06-13T10:58:04.815Z,37.71
2017-06-13T10:59:06.074Z,38.1
2017-06-13T11:00:07.323Z,37.15
2017-06-13T11:01:08.586Z,37.46
2017-06-13T11:02:09.857Z,36.58
2017-06-13T11:03:11.079Z,37.09
2017-06-13T11:04:12.473Z,36.41
2017-06-13T11:05:13.726Z,35.93
2017-06-13T11:06:15.015Z,36.9
2017-06-13T11:07:16.254Z,37.19
2017-06-13T11:08:17.500Z,37.36
2017-06-13T11:09:18.882Z,36.88
2017-06-13T11:10:20.208Z,36.38
2017-06-13T11:11:21.437Z,36.94
2017-06-13T11:12:22.693Z,37.23
2017-06-13T11:13:23.940Z,37.3
2017-06-13T11:14:25.213Z,37.98
2017-06-13T11:15:26.583Z,38.46
2017-06-13T11:16:27.821Z,38.37
2017-06-13T11:17:29.069Z,38.54
2017-06-13T11:18:30.333Z,38.18
2017-06-13T11:19:31.589Z,38.45
2017-06-13T11:20:32.886Z,39.04
2017-06-13T11:21:34.114Z,38.76
2017-06-13T11:22:35.388Z,38.66
2017-06-13T11:23:36.686Z,38.85
2017-06-13T11:24:37.943Z,38.85
2017-06-13T11:25:39.189Z,39.43
2017-06-13T11:26:40.458Z,39.14
2017-06-13T11:27:41.676Z,38.56
2017-06-13T11:28:42.975Z,38.95
2017-06-13T11:29:44.222Z,37.9
2017-06-13T11:30:45.475Z,37.88
2017-06-13T11:31:46.742Z,38.08
2017-06-13T11:32:47.980Z,38.66
2017-06-13T11:33:49.327Z,38.95
2017-06-13T11:34:50.558Z,39.36
2017-06-13T11:35:51.792Z,38.78
2017-06-13T11:36:53.043Z,38.68
2017-06-13T11:37:54.307Z,38.2
2017-06-13T11:38:55.549Z,38.78
2017-06-13T11:39:56.925Z,38.87
2017-06-13T11:40:58.223Z,38.68
2017-06-13T11:41:59.478Z,38.02
2017-06-13T11:43:00.712Z,37.92
2017-06-13T11:44:02.015Z,37.92
2017-06-13T11:45:03.260Z,38.41
2017-06-13T11:46:04.546Z,38.21
2017-06-13T11:47:05.854Z,38.12
2017-06-13T11:48:07.128Z,38.02
2017-06-13T11:49:08.370Z,38.13
2017-06-13T11:50:09.617Z,37.85
2017-06-13T11:51:10.934Z,36.98
2017-06-13T11:52:12.189Z,37.36
2017-06-13T11:53:13.484Z,37.65
2017-06-13T11:54:14.715Z,37.63
2017-06-13T11:55:15.966Z,37.82
2017-06-13T11:56:17.254Z,38.78
2017-06-13T11:57:18.479Z,38.39
2017-06-13T11:58:19.733Z,39.16
2017-06-13T11:59:21.140Z,39.36
2017-06-13T12:00:22.458Z,38.87
2017-06-13T12:01:23.710Z,38.79
2017-06-13T12:02:25.074Z,39.47
2017-06-13T12:03:26.331Z,39.09
2017-06-13T12:04:27.564Z,38.53
2017-06-13T12:05:28.902Z,37.46
2017-06-13T12:06:30.170Z,36.6
2017-06-13T12:07:31.422Z,36.4
2017-06-13T12:08:32.668Z,36.68
2017-06-13T12:09:33.915Z,36.68
2017-06-13T12:10:35.182Z,37.07
2017-06-13T12:11:36.425Z,36.9
2017-06-13T12:12:37.665Z,36.88
2017-06-13T12:13:38.917Z,36.2
2017-06-13T12:14:40.162Z,36.58
2017-06-13T12:15:41.413Z,35.93
2017-06-13T12:16:42.691Z,35.83
2017-06-13T12:17:43.914Z,35.64
2017-06-13T12:18:45.178Z,36.6
2017-06-13T12:19:46.451Z,34.78
2017-06-13T12:20:47.686Z,34.59
2017-06-13T12:21:48.967Z,33.54
2017-06-13T12:22:50.219Z,33.25
2017-06-13T12:23:51.593Z,32.94
2017-06-13T12:24:52.836Z,33.23
2017-06-13T12:25:54.112Z,33.72
2017-06-13T12:26:55.379Z,34.2
2017-06-13T12:27:56.617Z,35.07
2017-06-13T12:28:57.881Z,34.2
2017-06-13T12:29:59.162Z,35.07
2017-06-13T12:31:00.430Z,34.2
2017-06-13T12:32:01.823Z,34.3
2017-06-13T12:33:03.066Z,34.49
2017-06-13T12:34:04.313Z,34.78
2017-06-13T12:35:05.566Z,35.07
2017-06-13T12:36:06.965Z,34.97
2017-06-13T12:37:08.175Z,34.78
2017-06-13T12:38:09.422Z,35.44
2017-06-13T12:39:10.672Z,35.23
2017-06-13T12:40:11.924Z,35.52
2017-06-13T12:41:13.170Z,36.49
2017-06-13T12:42:14.544Z,36.76
2017-06-13T12:43:15.756Z,36.76
2017-06-13T12:44:17.035Z,37.32
2017-06-13T12:45:18.305Z,37.71
2017-06-13T12:46:19.543Z,38.2
2017-06-13T12:47:20.853Z,38.46
2017-06-13T12:48:22.152Z,38.97
2017-06-13T12:49:23.451Z,38.85
2017-06-13T12:50:24.705Z,39.43
2017-06-13T12:51:25.959Z,39.06
2017-06-13T12:52:27.218Z,39.24
2017-06-13T12:53:28.459Z,39.64
2017-06-13T12:54:29.718Z,39.14
2017-06-13T12:55:31.015Z,38.85
2017-06-13T12:56:32.308Z,39.14
2017-06-13T12:57:33.553Z,39.24
2017-06-13T12:58:34.805Z,39.72
2017-06-13T12:59:36.071Z,39.62
2017-06-13T13:00:37.422Z,40.11
2017-06-13T13:01:38.691Z,39.04
2017-06-13T13:02:39.965Z,39.74
2017-06-13T13:03:41.209Z,39.53
2017-06-13T13:04:42.458Z,39.14
2017-06-13T13:05:43.711Z,39.14
2017-06-13T13:06:45.025Z,39.72
2017-06-13T13:07:46.285Z,40.11
2017-06-13T13:08:47.526Z,41.15
2017-06-13T13:09:48.781Z,41.05
2017-06-13T13:10:50.042Z,41.33